sensor_id;sensor_type;location;lat;lon;timestamp;P1;durP1;ratioP1;P2;durP2;ratioP2
51862;SDS011;37900;52.996;6.278;2022-10-31T00:00:54;25.95;;;16.88;;
51862;SDS011;37900;52.996;6.278;2022-10-31T00:03:20;30.15;;;17.50;;
51862;SDS011;37900;52.996;6.278;2022-10-31T00:05:46;25.52;;;16.25;;
51862;SDS011;37900;52.996;6.278;2022-10-31T00:08:14;31.13;;;17.10;;
51862;SDS011;37900;52.996;6.278;2022-10-31T00:10:40;28.08;;;16.92;;
51862;SDS011;37900;52.996;6.278;2022-10-31T00:13:07;23.77;;;16.35;;
51862;SDS011;37900;52.996;6.278;2022-10-31T00:15:34;29.85;;;17.63;;
51862;SDS011;37900;52.996;6.278;2022-10-31T00:18:01;27.30;;;16.70;;
51862;SDS011;37900;52.996;6.278;2022-10-31T00:20:28;30.63;;;17.48;;
51862;SDS011;37900;52.996;6.278;2022-10-31T00:22:56;29.52;;;16.92;;
51862;SDS011;37900;52.996;6.278;2022-10-31T00:25:22;32.80;;;17.30;;
51862;SDS011;37900;52.996;6.278;2022-10-31T00:27:48;29.38;;;17.40;;
51862;SDS011;37900;52.996;6.278;2022-10-31T00:30:14;26.20;;;16.17;;
51862;SDS011;37900;52.996;6.278;2022-10-31T00:32:40;24.25;;;15.57;;
51862;SDS011;37900;52.996;6.278;2022-10-31T00:35:05;32.70;;;16.98;;
51862;SDS011;37900;52.996;6.278;2022-10-31T00:37:31;21.73;;;14.50;;
51862;SDS011;37900;52.996;6.278;2022-10-31T00:39:57;25.45;;;15.93;;
51862;SDS011;37900;52.996;6.278;2022-10-31T00:42:23;27.58;;;17.17;;
51862;SDS011;37900;52.996;6.278;2022-10-31T00:44:48;27.23;;;15.20;;
51862;SDS011;37900;52.996;6.278;2022-10-31T00:47:14;26.70;;;15.05;;
51862;SDS011;37900;52.996;6.278;2022-10-31T00:49:40;27.73;;;16.85;;
51862;SDS011;37900;52.996;6.278;2022-10-31T00:52:05;25.83;;;15.75;;
51862;SDS011;37900;52.996;6.278;2022-10-31T00:54:31;22.13;;;14.95;;
51862;SDS011;37900;52.996;6.278;2022-10-31T00:56:57;28.52;;;17.23;;
51862;SDS011;37900;52.996;6.278;2022-10-31T00:59:23;28.35;;;16.35;;
51862;SDS011;37900;52.996;6.278;2022-10-31T01:01:48;21.80;;;15.55;;
51862;SDS011;37900;52.996;6.278;2022-10-31T01:04:14;29.40;;;16.50;;
51862;SDS011;37900;52.996;6.278;2022-10-31T01:06:40;26.35;;;15.85;;
51862;SDS011;37900;52.996;6.278;2022-10-31T01:09:06;22.88;;;14.85;;
51862;SDS011;37900;52.996;6.278;2022-10-31T01:11:32;24.42;;;14.05;;
51862;SDS011;37900;52.996;6.278;2022-10-31T01:13:57;25.67;;;14.73;;
51862;SDS011;37900;52.996;6.278;2022-10-31T01:16:26;23.17;;;15.45;;
51862;SDS011;37900;52.996;6.278;2022-10-31T01:18:54;24.60;;;13.90;;
51862;SDS011;37900;52.996;6.278;2022-10-31T01:21:21;21.98;;;15.60;;
51862;SDS011;37900;52.996;6.278;2022-10-31T01:23:48;23.27;;;14.82;;
51862;SDS011;37900;52.996;6.278;2022-10-31T01:26:19;21.27;;;15.07;;
51862;SDS011;37900;52.996;6.278;2022-10-31T01:29:07;21.50;;;13.57;;
51862;SDS011;37900;52.996;6.278;2022-10-31T01:31:34;21.67;;;14.10;;
51862;SDS011;37900;52.996;6.278;2022-10-31T01:34:01;24.45;;;15.05;;
51862;SDS011;37900;52.996;6.278;2022-10-31T01:36:28;25.02;;;15.73;;
51862;SDS011;37900;52.996;6.278;2022-10-31T01:39:00;25.05;;;15.85;;
51862;SDS011;37900;52.996;6.278;2022-10-31T01:41:35;19.92;;;14.32;;
51862;SDS011;37900;52.996;6.278;2022-10-31T01:44:47;20.65;;;14.15;;
51862;SDS011;37900;52.996;6.278;2022-10-31T01:47:13;19.98;;;13.18;;
51862;SDS011;37900;52.996;6.278;2022-10-31T01:49:52;23.33;;;14.15;;
51862;SDS011;37900;52.996;6.278;2022-10-31T01:54:49;22.08;;;13.88;;
51862;SDS011;37900;52.996;6.278;2022-10-31T01:57:22;20.25;;;13.30;;
51862;SDS011;37900;52.996;6.278;2022-10-31T01:59:52;21.42;;;13.55;;
51862;SDS011;37900;52.996;6.278;2022-10-31T02:02:21;20.83;;;13.43;;
51862;SDS011;37900;52.996;6.278;2022-10-31T02:04:48;21.90;;;13.27;;
51862;SDS011;37900;52.996;6.278;2022-10-31T02:07:16;23.40;;;13.98;;
51862;SDS011;37900;52.996;6.278;2022-10-31T02:09:46;21.13;;;13.43;;
51862;SDS011;37900;52.996;6.278;2022-10-31T02:12:14;22.92;;;14.15;;
51862;SDS011;37900;52.996;6.278;2022-10-31T02:14:41;18.27;;;13.38;;
51862;SDS011;37900;52.996;6.278;2022-10-31T02:17:07;23.42;;;13.45;;
51862;SDS011;37900;52.996;6.278;2022-10-31T02:30:41;20.67;;;13.13;;
51862;SDS011;37900;52.996;6.278;2022-10-31T02:36:05;18.27;;;12.13;;
51862;SDS011;37900;52.996;6.278;2022-10-31T02:41:52;18.92;;;13.80;;
51862;SDS011;37900;52.996;6.278;2022-10-31T02:44:44;18.83;;;12.33;;
51862;SDS011;37900;52.996;6.278;2022-10-31T02:47:17;20.35;;;13.18;;
51862;SDS011;37900;52.996;6.278;2022-10-31T02:49:53;19.02;;;13.10;;
51862;SDS011;37900;52.996;6.278;2022-10-31T02:52:26;16.67;;;11.85;;
51862;SDS011;37900;52.996;6.278;2022-10-31T02:54:53;18.08;;;13.02;;
51862;SDS011;37900;52.996;6.278;2022-10-31T02:57:23;17.60;;;12.98;;
51862;SDS011;37900;52.996;6.278;2022-10-31T02:59:52;17.30;;;12.05;;
51862;SDS011;37900;52.996;6.278;2022-10-31T03:07:42;22.15;;;13.40;;
51862;SDS011;37900;52.996;6.278;2022-10-31T03:16:30;17.77;;;12.25;;
51862;SDS011;37900;52.996;6.278;2022-10-31T03:19:29;17.70;;;12.50;;
51862;SDS011;37900;52.996;6.278;2022-10-31T03:22:09;19.23;;;12.07;;
51862;SDS011;37900;52.996;6.278;2022-10-31T03:24:40;16.20;;;10.95;;
51862;SDS011;37900;52.996;6.278;2022-10-31T03:27:08;18.27;;;11.25;;
51862;SDS011;37900;52.996;6.278;2022-10-31T03:29:37;20.55;;;12.82;;
51862;SDS011;37900;52.996;6.278;2022-10-31T03:32:10;18.77;;;12.25;;
51862;SDS011;37900;52.996;6.278;2022-10-31T03:34:40;16.00;;;10.98;;
51862;SDS011;37900;52.996;6.278;2022-10-31T03:37:09;20.27;;;12.10;;
51862;SDS011;37900;52.996;6.278;2022-10-31T03:39:38;16.02;;;11.13;;
51862;SDS011;37900;52.996;6.278;2022-10-31T03:42:12;18.45;;;11.10;;
51862;SDS011;37900;52.996;6.278;2022-10-31T03:44:42;16.85;;;11.45;;
51862;SDS011;37900;52.996;6.278;2022-10-31T03:47:13;18.13;;;11.82;;
51862;SDS011;37900;52.996;6.278;2022-10-31T03:49:39;16.27;;;11.15;;
51862;SDS011;37900;52.996;6.278;2022-10-31T03:54:46;17.65;;;10.98;;
51862;SDS011;37900;52.996;6.278;2022-10-31T03:59:53;16.15;;;11.20;;
51862;SDS011;37900;52.996;6.278;2022-10-31T04:02:30;13.95;;;10.18;;
51862;SDS011;37900;52.996;6.278;2022-10-31T04:04:58;18.95;;;11.88;;
51862;SDS011;37900;52.996;6.278;2022-10-31T04:07:26;18.05;;;11.15;;
51862;SDS011;37900;52.996;6.278;2022-10-31T04:09:55;16.70;;;10.60;;
51862;SDS011;37900;52.996;6.278;2022-10-31T04:12:22;13.25;;;10.30;;
51862;SDS011;37900;52.996;6.278;2022-10-31T04:14:51;14.85;;;9.82;;
51862;SDS011;37900;52.996;6.278;2022-10-31T04:17:18;18.20;;;10.68;;
51862;SDS011;37900;52.996;6.278;2022-10-31T04:19:48;17.27;;;11.25;;
51862;SDS011;37900;52.996;6.278;2022-10-31T04:22:13;17.98;;;11.02;;
51862;SDS011;37900;52.996;6.278;2022-10-31T04:24:39;15.00;;;10.68;;
51862;SDS011;37900;52.996;6.278;2022-10-31T04:27:06;14.95;;;10.38;;
51862;SDS011;37900;52.996;6.278;2022-10-31T04:29:32;15.40;;;9.65;;
51862;SDS011;37900;52.996;6.278;2022-10-31T04:31:57;17.48;;;9.98;;
51862;SDS011;37900;52.996;6.278;2022-10-31T04:34:23;14.60;;;10.80;;
51862;SDS011;37900;52.996;6.278;2022-10-31T04:36:49;15.02;;;10.52;;
51862;SDS011;37900;52.996;6.278;2022-10-31T04:39:14;13.60;;;9.85;;
51862;SDS011;37900;52.996;6.278;2022-10-31T04:41:40;14.98;;;10.00;;
51862;SDS011;37900;52.996;6.278;2022-10-31T04:44:06;13.48;;;8.95;;
51862;SDS011;37900;52.996;6.278;2022-10-31T04:46:31;14.07;;;9.57;;
51862;SDS011;37900;52.996;6.278;2022-10-31T04:48:57;15.73;;;10.10;;
51862;SDS011;37900;52.996;6.278;2022-10-31T04:51:23;14.65;;;9.80;;
51862;SDS011;37900;52.996;6.278;2022-10-31T04:53:48;13.30;;;9.90;;
51862;SDS011;37900;52.996;6.278;2022-10-31T04:56:14;15.73;;;10.23;;
51862;SDS011;37900;52.996;6.278;2022-10-31T04:58:40;13.73;;;9.52;;
51862;SDS011;37900;52.996;6.278;2022-10-31T05:01:06;18.05;;;10.50;;
51862;SDS011;37900;52.996;6.278;2022-10-31T05:03:31;13.68;;;10.18;;
51862;SDS011;37900;52.996;6.278;2022-10-31T05:05:57;17.52;;;9.80;;
51862;SDS011;37900;52.996;6.278;2022-10-31T05:08:23;14.15;;;9.75;;
51862;SDS011;37900;52.996;6.278;2022-10-31T05:10:49;13.57;;;10.07;;
51862;SDS011;37900;52.996;6.278;2022-10-31T05:13:14;14.18;;;10.68;;
51862;SDS011;37900;52.996;6.278;2022-10-31T05:15:40;14.43;;;10.10;;
51862;SDS011;37900;52.996;6.278;2022-10-31T05:18:06;14.45;;;9.48;;
51862;SDS011;37900;52.996;6.278;2022-10-31T05:20:32;13.43;;;8.85;;
51862;SDS011;37900;52.996;6.278;2022-10-31T05:22:58;15.15;;;9.45;;
51862;SDS011;37900;52.996;6.278;2022-10-31T05:25:25;13.35;;;8.93;;
51862;SDS011;37900;52.996;6.278;2022-10-31T05:27:52;14.88;;;9.45;;
51862;SDS011;37900;52.996;6.278;2022-10-31T05:30:20;15.82;;;10.18;;
51862;SDS011;37900;52.996;6.278;2022-10-31T05:32:48;11.98;;;9.57;;
51862;SDS011;37900;52.996;6.278;2022-10-31T05:35:16;14.82;;;10.63;;
51862;SDS011;37900;52.996;6.278;2022-10-31T05:37:47;14.15;;;9.43;;
51862;SDS011;37900;52.996;6.278;2022-10-31T05:40:13;14.38;;;9.43;;
51862;SDS011;37900;52.996;6.278;2022-10-31T05:42:41;10.48;;;8.88;;
51862;SDS011;37900;52.996;6.278;2022-10-31T05:45:11;12.55;;;9.25;;
51862;SDS011;37900;52.996;6.278;2022-10-31T05:47:38;12.73;;;8.57;;
51862;SDS011;37900;52.996;6.278;2022-10-31T05:50:04;11.43;;;8.85;;
51862;SDS011;37900;52.996;6.278;2022-10-31T05:52:30;12.32;;;8.77;;
51862;SDS011;37900;52.996;6.278;2022-10-31T05:54:56;12.18;;;8.85;;
51862;SDS011;37900;52.996;6.278;2022-10-31T05:57:22;13.30;;;8.52;;
51862;SDS011;37900;52.996;6.278;2022-10-31T05:59:48;11.55;;;8.80;;
51862;SDS011;37900;52.996;6.278;2022-10-31T06:02:13;11.05;;;7.97;;
51862;SDS011;37900;52.996;6.278;2022-10-31T06:04:39;11.38;;;8.13;;
51862;SDS011;37900;52.996;6.278;2022-10-31T06:07:05;10.93;;;8.27;;
51862;SDS011;37900;52.996;6.278;2022-10-31T06:09:30;13.10;;;8.43;;
51862;SDS011;37900;52.996;6.278;2022-10-31T06:11:56;14.30;;;8.60;;
51862;SDS011;37900;52.996;6.278;2022-10-31T06:14:22;12.82;;;9.05;;
51862;SDS011;37900;52.996;6.278;2022-10-31T06:16:47;12.77;;;10.00;;
51862;SDS011;37900;52.996;6.278;2022-10-31T06:19:13;13.60;;;8.65;;
51862;SDS011;37900;52.996;6.278;2022-10-31T06:21:39;12.45;;;8.15;;
51862;SDS011;37900;52.996;6.278;2022-10-31T06:24:05;12.65;;;8.52;;
51862;SDS011;37900;52.996;6.278;2022-10-31T06:26:30;10.77;;;8.15;;
51862;SDS011;37900;52.996;6.278;2022-10-31T06:28:56;12.82;;;8.35;;
51862;SDS011;37900;52.996;6.278;2022-10-31T06:31:22;11.90;;;8.20;;
51862;SDS011;37900;52.996;6.278;2022-10-31T06:33:47;11.52;;;7.93;;
51862;SDS011;37900;52.996;6.278;2022-10-31T06:36:13;11.00;;;7.57;;
51862;SDS011;37900;52.996;6.278;2022-10-31T06:38:39;12.15;;;8.20;;
51862;SDS011;37900;52.996;6.278;2022-10-31T06:41:05;11.75;;;7.78;;
51862;SDS011;37900;52.996;6.278;2022-10-31T06:43:31;11.43;;;7.50;;
51862;SDS011;37900;52.996;6.278;2022-10-31T06:45:56;10.93;;;8.00;;
51862;SDS011;37900;52.996;6.278;2022-10-31T06:48:22;11.35;;;7.38;;
51862;SDS011;37900;52.996;6.278;2022-10-31T06:50:48;10.10;;;7.63;;
51862;SDS011;37900;52.996;6.278;2022-10-31T06:53:14;12.02;;;8.43;;
51862;SDS011;37900;52.996;6.278;2022-10-31T06:55:40;13.05;;;8.48;;
51862;SDS011;37900;52.996;6.278;2022-10-31T06:58:06;10.95;;;7.63;;
51862;SDS011;37900;52.996;6.278;2022-10-31T07:00:34;8.68;;;7.00;;
51862;SDS011;37900;52.996;6.278;2022-10-31T07:03:01;10.43;;;7.22;;
51862;SDS011;37900;52.996;6.278;2022-10-31T07:05:28;10.23;;;7.28;;
51862;SDS011;37900;52.996;6.278;2022-10-31T07:07:55;12.13;;;7.32;;
51862;SDS011;37900;52.996;6.278;2022-10-31T07:10:26;10.30;;;7.45;;
51862;SDS011;37900;52.996;6.278;2022-10-31T07:15:26;9.48;;;6.78;;
51862;SDS011;37900;52.996;6.278;2022-10-31T07:20:18;8.23;;;6.53;;
51862;SDS011;37900;52.996;6.278;2022-10-31T07:22:44;11.15;;;7.00;;
51862;SDS011;37900;52.996;6.278;2022-10-31T07:25:10;10.98;;;7.50;;
51862;SDS011;37900;52.996;6.278;2022-10-31T07:27:39;10.05;;;7.68;;
51862;SDS011;37900;52.996;6.278;2022-10-31T07:30:07;9.85;;;7.13;;
51862;SDS011;37900;52.996;6.278;2022-10-31T07:32:40;8.88;;;6.68;;
51862;SDS011;37900;52.996;6.278;2022-10-31T07:35:08;9.80;;;6.82;;
51862;SDS011;37900;52.996;6.278;2022-10-31T07:37:35;10.27;;;7.28;;
51862;SDS011;37900;52.996;6.278;2022-10-31T07:40:02;8.93;;;7.22;;
51862;SDS011;37900;52.996;6.278;2022-10-31T07:42:30;9.65;;;6.80;;
51862;SDS011;37900;52.996;6.278;2022-10-31T07:45:00;9.70;;;7.38;;
51862;SDS011;37900;52.996;6.278;2022-10-31T07:47:26;9.30;;;6.75;;
51862;SDS011;37900;52.996;6.278;2022-10-31T07:49:52;10.57;;;6.63;;
51862;SDS011;37900;52.996;6.278;2022-10-31T07:52:17;7.68;;;6.22;;
51862;SDS011;37900;52.996;6.278;2022-10-31T07:54:43;8.60;;;6.60;;
51862;SDS011;37900;52.996;6.278;2022-10-31T07:57:09;9.55;;;7.05;;
51862;SDS011;37900;52.996;6.278;2022-10-31T07:59:34;8.43;;;6.93;;
51862;SDS011;37900;52.996;6.278;2022-10-31T08:02:00;8.98;;;6.15;;
51862;SDS011;37900;52.996;6.278;2022-10-31T08:04:26;9.63;;;6.80;;
51862;SDS011;37900;52.996;6.278;2022-10-31T08:06:51;9.07;;;6.70;;
51862;SDS011;37900;52.996;6.278;2022-10-31T08:09:17;9.77;;;6.85;;
51862;SDS011;37900;52.996;6.278;2022-10-31T08:11:43;8.07;;;6.63;;
51862;SDS011;37900;52.996;6.278;2022-10-31T08:14:08;8.27;;;5.78;;
51862;SDS011;37900;52.996;6.278;2022-10-31T08:16:34;10.88;;;8.48;;
51862;SDS011;37900;52.996;6.278;2022-10-31T08:19:00;9.77;;;6.88;;
51862;SDS011;37900;52.996;6.278;2022-10-31T08:21:25;11.30;;;6.85;;
51862;SDS011;37900;52.996;6.278;2022-10-31T08:23:51;9.57;;;6.85;;
51862;SDS011;37900;52.996;6.278;2022-10-31T08:26:17;12.00;;;7.22;;
51862;SDS011;37900;52.996;6.278;2022-10-31T08:28:43;8.23;;;6.78;;
51862;SDS011;37900;52.996;6.278;2022-10-31T08:31:08;8.45;;;6.55;;
51862;SDS011;37900;52.996;6.278;2022-10-31T08:33:35;8.85;;;6.40;;
51862;SDS011;37900;52.996;6.278;2022-10-31T08:36:00;8.65;;;6.63;;
51862;SDS011;37900;52.996;6.278;2022-10-31T08:38:26;9.38;;;7.20;;
51862;SDS011;37900;52.996;6.278;2022-10-31T08:40:52;11.20;;;7.20;;
51862;SDS011;37900;52.996;6.278;2022-10-31T08:43:18;9.95;;;7.03;;
51862;SDS011;37900;52.996;6.278;2022-10-31T08:45:44;9.32;;;6.45;;
51862;SDS011;37900;52.996;6.278;2022-10-31T08:48:13;10.32;;;6.95;;
51862;SDS011;37900;52.996;6.278;2022-10-31T08:50:40;9.30;;;7.18;;
51862;SDS011;37900;52.996;6.278;2022-10-31T08:53:09;16.08;;;10.85;;
51862;SDS011;37900;52.996;6.278;2022-10-31T08:55:36;22.90;;;12.43;;
51862;SDS011;37900;52.996;6.278;2022-10-31T08:58:03;17.75;;;10.95;;
51862;SDS011;37900;52.996;6.278;2022-10-31T09:00:31;15.82;;;10.75;;
51862;SDS011;37900;52.996;6.278;2022-10-31T09:02:58;12.25;;;9.50;;
51862;SDS011;37900;52.996;6.278;2022-10-31T09:05:25;15.70;;;9.73;;
51862;SDS011;37900;52.996;6.278;2022-10-31T09:07:55;14.55;;;8.85;;
51862;SDS011;37900;52.996;6.278;2022-10-31T09:10:23;13.50;;;8.50;;
51862;SDS011;37900;52.996;6.278;2022-10-31T09:13:01;14.57;;;9.18;;
51862;SDS011;37900;52.996;6.278;2022-10-31T09:15:31;19.65;;;8.35;;
51862;SDS011;37900;52.996;6.278;2022-10-31T09:17:58;12.82;;;8.35;;
51862;SDS011;37900;52.996;6.278;2022-10-31T09:20:25;15.35;;;9.35;;
51862;SDS011;37900;52.996;6.278;2022-10-31T09:22:59;10.70;;;7.70;;
51862;SDS011;37900;52.996;6.278;2022-10-31T09:25:27;12.07;;;8.68;;
51862;SDS011;37900;52.996;6.278;2022-10-31T09:27:57;11.48;;;7.53;;
51862;SDS011;37900;52.996;6.278;2022-10-31T09:30:23;12.57;;;8.05;;
51862;SDS011;37900;52.996;6.278;2022-10-31T09:32:55;12.02;;;8.02;;
51862;SDS011;37900;52.996;6.278;2022-10-31T09:35:22;9.90;;;7.47;;
51862;SDS011;37900;52.996;6.278;2022-10-31T09:37:55;11.83;;;8.43;;
51862;SDS011;37900;52.996;6.278;2022-10-31T09:48:36;12.50;;;8.48;;
51862;SDS011;37900;52.996;6.278;2022-10-31T09:51:15;10.95;;;7.40;;
51862;SDS011;37900;52.996;6.278;2022-10-31T09:54:19;11.40;;;7.43;;
51862;SDS011;37900;52.996;6.278;2022-10-31T09:56:43;11.65;;;7.65;;
51862;SDS011;37900;52.996;6.278;2022-10-31T09:59:31;11.07;;;7.97;;
51862;SDS011;37900;52.996;6.278;2022-10-31T10:10:16;9.70;;;7.22;;
51862;SDS011;37900;52.996;6.278;2022-10-31T10:12:58;11.10;;;7.43;;
51862;SDS011;37900;52.996;6.278;2022-10-31T10:26:18;9.82;;;7.43;;
51862;SDS011;37900;52.996;6.278;2022-10-31T10:28:51;10.23;;;7.55;;
51862;SDS011;37900;52.996;6.278;2022-10-31T10:31:32;10.20;;;7.13;;
51862;SDS011;37900;52.996;6.278;2022-10-31T10:34:10;9.02;;;6.72;;
51862;SDS011;37900;52.996;6.278;2022-10-31T10:36:58;8.77;;;7.80;;
51862;SDS011;37900;52.996;6.278;2022-10-31T10:39:30;9.35;;;7.03;;
51862;SDS011;37900;52.996;6.278;2022-10-31T10:42:12;9.70;;;7.20;;
51862;SDS011;37900;52.996;6.278;2022-10-31T10:44:58;9.45;;;6.38;;
51862;SDS011;37900;52.996;6.278;2022-10-31T10:47:46;9.68;;;6.68;;
51862;SDS011;37900;52.996;6.278;2022-10-31T10:50:21;10.07;;;6.80;;
51862;SDS011;37900;52.996;6.278;2022-10-31T10:53:01;8.82;;;6.43;;
51862;SDS011;37900;52.996;6.278;2022-10-31T10:56:02;8.75;;;6.40;;
51862;SDS011;37900;52.996;6.278;2022-10-31T10:58:45;9.20;;;6.65;;
51862;SDS011;37900;52.996;6.278;2022-10-31T11:01:12;10.90;;;7.40;;
51862;SDS011;37900;52.996;6.278;2022-10-31T11:03:39;12.73;;;6.85;;
51862;SDS011;37900;52.996;6.278;2022-10-31T11:06:15;11.23;;;7.00;;
51862;SDS011;37900;52.996;6.278;2022-10-31T11:08:42;11.33;;;6.90;;
51862;SDS011;37900;52.996;6.278;2022-10-31T11:13:59;18.85;;;6.97;;
51862;SDS011;37900;52.996;6.278;2022-10-31T11:16:38;9.65;;;6.15;;
51862;SDS011;37900;52.996;6.278;2022-10-31T11:19:17;10.07;;;6.75;;
51862;SDS011;37900;52.996;6.278;2022-10-31T11:21:45;13.40;;;6.65;;
51862;SDS011;37900;52.996;6.278;2022-10-31T11:26:40;11.25;;;6.63;;
51862;SDS011;37900;52.996;6.278;2022-10-31T11:29:12;12.07;;;7.07;;
51862;SDS011;37900;52.996;6.278;2022-10-31T11:31:45;11.73;;;6.43;;
51862;SDS011;37900;52.996;6.278;2022-10-31T11:34:22;12.02;;;6.18;;
51862;SDS011;37900;52.996;6.278;2022-10-31T11:36:54;8.63;;;6.10;;
51862;SDS011;37900;52.996;6.278;2022-10-31T11:39:29;11.43;;;6.20;;
51862;SDS011;37900;52.996;6.278;2022-10-31T11:41:59;12.90;;;7.13;;
51862;SDS011;37900;52.996;6.278;2022-10-31T11:44:27;10.65;;;6.88;;
51862;SDS011;37900;52.996;6.278;2022-10-31T11:46:56;10.55;;;6.20;;
51862;SDS011;37900;52.996;6.278;2022-10-31T11:49:38;12.38;;;6.35;;
51862;SDS011;37900;52.996;6.278;2022-10-31T11:52:15;9.95;;;6.32;;
51862;SDS011;37900;52.996;6.278;2022-10-31T11:57:41;10.82;;;5.78;;
51862;SDS011;37900;52.996;6.278;2022-10-31T12:03:16;9.63;;;6.57;;
51862;SDS011;37900;52.996;6.278;2022-10-31T12:05:53;9.02;;;5.70;;
51862;SDS011;37900;52.996;6.278;2022-10-31T12:08:34;9.07;;;6.55;;
51862;SDS011;37900;52.996;6.278;2022-10-31T12:13:51;9.65;;;6.70;;
51862;SDS011;37900;52.996;6.278;2022-10-31T12:16:39;6.35;;;5.20;;
51862;SDS011;37900;52.996;6.278;2022-10-31T12:28:20;9.77;;;6.07;;
51862;SDS011;37900;52.996;6.278;2022-10-31T12:30:41;9.30;;;5.93;;
51862;SDS011;37900;52.996;6.278;2022-10-31T12:36:07;8.88;;;5.40;;
51862;SDS011;37900;52.996;6.278;2022-10-31T12:38:39;7.80;;;5.30;;
51862;SDS011;37900;52.996;6.278;2022-10-31T12:41:21;6.47;;;4.45;;
51862;SDS011;37900;52.996;6.278;2022-10-31T12:44:05;6.65;;;5.20;;
51862;SDS011;37900;52.996;6.278;2022-10-31T12:49:25;7.57;;;4.60;;
51862;SDS011;37900;52.996;6.278;2022-10-31T12:52:09;8.18;;;5.03;;
51862;SDS011;37900;52.996;6.278;2022-10-31T12:57:43;7.53;;;4.97;;
51862;SDS011;37900;52.996;6.278;2022-10-31T13:02:48;7.68;;;4.35;;
51862;SDS011;37900;52.996;6.278;2022-10-31T13:05:32;7.22;;;4.78;;
51862;SDS011;37900;52.996;6.278;2022-10-31T13:08:06;5.07;;;4.40;;
51862;SDS011;37900;52.996;6.278;2022-10-31T13:13:16;8.13;;;4.68;;
51862;SDS011;37900;52.996;6.278;2022-10-31T13:15:50;5.55;;;4.38;;
51862;SDS011;37900;52.996;6.278;2022-10-31T13:21:18;6.55;;;4.30;;
51862;SDS011;37900;52.996;6.278;2022-10-31T13:23:49;5.65;;;4.57;;
51862;SDS011;37900;52.996;6.278;2022-10-31T13:29:16;6.57;;;4.38;;
51862;SDS011;37900;52.996;6.278;2022-10-31T13:31:52;7.15;;;4.65;;
51862;SDS011;37900;52.996;6.278;2022-10-31T13:34:21;5.00;;;3.97;;
51862;SDS011;37900;52.996;6.278;2022-10-31T13:36:59;6.57;;;3.75;;
51862;SDS011;37900;52.996;6.278;2022-10-31T13:39:47;5.32;;;4.07;;
51862;SDS011;37900;52.996;6.278;2022-10-31T13:45:18;5.53;;;3.83;;
51862;SDS011;37900;52.996;6.278;2022-10-31T13:48:16;4.90;;;3.90;;
51862;SDS011;37900;52.996;6.278;2022-10-31T13:51:06;5.88;;;3.83;;
51862;SDS011;37900;52.996;6.278;2022-10-31T13:58:34;6.95;;;3.90;;
51862;SDS011;37900;52.996;6.278;2022-10-31T14:03:36;5.30;;;3.90;;
51862;SDS011;37900;52.996;6.278;2022-10-31T14:06:04;5.53;;;3.30;;
51862;SDS011;37900;52.996;6.278;2022-10-31T14:08:34;6.53;;;4.15;;
51862;SDS011;37900;52.996;6.278;2022-10-31T14:11:02;5.63;;;3.60;;
51862;SDS011;37900;52.996;6.278;2022-10-31T14:16:24;5.20;;;3.72;;
51862;SDS011;37900;52.996;6.278;2022-10-31T14:19:04;4.93;;;3.75;;
51862;SDS011;37900;52.996;6.278;2022-10-31T14:21:43;4.45;;;3.30;;
51862;SDS011;37900;52.996;6.278;2022-10-31T14:24:15;5.88;;;3.47;;
51862;SDS011;37900;52.996;6.278;2022-10-31T14:27:01;5.40;;;3.22;;
51862;SDS011;37900;52.996;6.278;2022-10-31T14:29:51;5.45;;;3.58;;
51862;SDS011;37900;52.996;6.278;2022-10-31T14:32:21;5.35;;;3.97;;
51862;SDS011;37900;52.996;6.278;2022-10-31T14:34:58;4.28;;;2.85;;
51862;SDS011;37900;52.996;6.278;2022-10-31T14:43:21;6.88;;;3.75;;
51862;SDS011;37900;52.996;6.278;2022-10-31T14:51:19;4.72;;;2.83;;
51862;SDS011;37900;52.996;6.278;2022-10-31T14:53:51;4.35;;;2.78;;
51862;SDS011;37900;52.996;6.278;2022-10-31T14:56:20;3.85;;;2.92;;
51862;SDS011;37900;52.996;6.278;2022-10-31T14:59:02;6.68;;;3.05;;
51862;SDS011;37900;52.996;6.278;2022-10-31T15:01:35;3.40;;;2.65;;
51862;SDS011;37900;52.996;6.278;2022-10-31T15:04:18;4.07;;;2.60;;
51862;SDS011;37900;52.996;6.278;2022-10-31T15:06:49;4.45;;;2.88;;
51862;SDS011;37900;52.996;6.278;2022-10-31T15:09:39;4.95;;;2.63;;
51862;SDS011;37900;52.996;6.278;2022-10-31T15:12:25;3.97;;;2.63;;
51862;SDS011;37900;52.996;6.278;2022-10-31T15:14:52;4.60;;;2.90;;
51862;SDS011;37900;52.996;6.278;2022-10-31T15:17:19;4.15;;;2.72;;
51862;SDS011;37900;52.996;6.278;2022-10-31T15:19:45;3.95;;;2.78;;
51862;SDS011;37900;52.996;6.278;2022-10-31T15:22:15;3.15;;;2.50;;
51862;SDS011;37900;52.996;6.278;2022-10-31T15:24:42;4.28;;;2.50;;
51862;SDS011;37900;52.996;6.278;2022-10-31T15:27:13;2.60;;;2.13;;
51862;SDS011;37900;52.996;6.278;2022-10-31T15:29:48;3.60;;;2.50;;
51862;SDS011;37900;52.996;6.278;2022-10-31T15:32:20;4.60;;;2.72;;
51862;SDS011;37900;52.996;6.278;2022-10-31T15:34:54;4.82;;;2.38;;
51862;SDS011;37900;52.996;6.278;2022-10-31T15:37:22;4.72;;;2.60;;
51862;SDS011;37900;52.996;6.278;2022-10-31T15:39:50;3.25;;;2.20;;
51862;SDS011;37900;52.996;6.278;2022-10-31T15:42:25;5.32;;;2.75;;
51862;SDS011;37900;52.996;6.278;2022-10-31T15:45:01;5.32;;;2.50;;
51862;SDS011;37900;52.996;6.278;2022-10-31T15:47:31;2.92;;;2.05;;
51862;SDS011;37900;52.996;6.278;2022-10-31T15:52:41;4.93;;;2.03;;
51862;SDS011;37900;52.996;6.278;2022-10-31T15:57:48;2.67;;;1.98;;
51862;SDS011;37900;52.996;6.278;2022-10-31T16:03:01;5.07;;;2.47;;
51862;SDS011;37900;52.996;6.278;2022-10-31T16:05:34;3.13;;;2.30;;
51862;SDS011;37900;52.996;6.278;2022-10-31T16:08:19;3.38;;;2.17;;
51862;SDS011;37900;52.996;6.278;2022-10-31T16:10:51;3.22;;;2.20;;
51862;SDS011;37900;52.996;6.278;2022-10-31T16:13:19;3.45;;;2.08;;
51862;SDS011;37900;52.996;6.278;2022-10-31T16:16:10;3.42;;;2.03;;
51862;SDS011;37900;52.996;6.278;2022-10-31T16:18:38;4.10;;;2.03;;
51862;SDS011;37900;52.996;6.278;2022-10-31T16:21:06;2.67;;;1.73;;
51862;SDS011;37900;52.996;6.278;2022-10-31T16:23:32;2.88;;;2.10;;
51862;SDS011;37900;52.996;6.278;2022-10-31T16:25:59;4.00;;;2.08;;
51862;SDS011;37900;52.996;6.278;2022-10-31T16:28:26;3.97;;;2.10;;
51862;SDS011;37900;52.996;6.278;2022-10-31T16:30:53;3.53;;;1.98;;
51862;SDS011;37900;52.996;6.278;2022-10-31T16:33:36;4.93;;;2.33;;
51862;SDS011;37900;52.996;6.278;2022-10-31T16:38:59;3.80;;;1.77;;
51862;SDS011;37900;52.996;6.278;2022-10-31T16:41:25;3.08;;;1.95;;
51862;SDS011;37900;52.996;6.278;2022-10-31T16:43:51;4.95;;;1.85;;
51862;SDS011;37900;52.996;6.278;2022-10-31T16:46:22;4.18;;;2.00;;
51862;SDS011;37900;52.996;6.278;2022-10-31T16:48:51;3.50;;;2.20;;
51862;SDS011;37900;52.996;6.278;2022-10-31T16:51:18;4.53;;;2.03;;
51862;SDS011;37900;52.996;6.278;2022-10-31T16:53:43;3.45;;;1.83;;
51862;SDS011;37900;52.996;6.278;2022-10-31T16:56:14;2.80;;;2.10;;
51862;SDS011;37900;52.996;6.278;2022-10-31T16:59:01;4.18;;;2.08;;
51862;SDS011;37900;52.996;6.278;2022-10-31T17:01:28;4.20;;;2.22;;
51862;SDS011;37900;52.996;6.278;2022-10-31T17:03:55;2.90;;;1.80;;
51862;SDS011;37900;52.996;6.278;2022-10-31T17:06:21;3.53;;;1.80;;
51862;SDS011;37900;52.996;6.278;2022-10-31T17:08:46;2.25;;;1.80;;
51862;SDS011;37900;52.996;6.278;2022-10-31T17:11:14;4.00;;;1.80;;
51862;SDS011;37900;52.996;6.278;2022-10-31T17:13:43;3.60;;;1.98;;
51862;SDS011;37900;52.996;6.278;2022-10-31T17:16:08;4.00;;;1.98;;
51862;SDS011;37900;52.996;6.278;2022-10-31T17:18:37;3.55;;;1.70;;
51862;SDS011;37900;52.996;6.278;2022-10-31T17:21:03;3.03;;;1.88;;